PSMOR SBSP-SBRJ
Flight info
| Callsign | PSMOR |
|---|---|
| Flight time | 0h 40m |
| Altitude | 33000 |
| Route | NIBRU UZ171 KEVUN |
| Aircraft | LJ35/M-SGHRWXY/SB1 |
Departure
| Time | 2026-05-06 23:59 |
|---|---|
| Airport | Congonhas–Deputado Freitas Nobre Airport (SBSP) |
Arrival
| Time | 2026-05-07 00:39 |
|---|---|
| Airport | Santos Dumont Airport (SBRJ) |
| Time | Latitude | Longitude | Altitude | Speed | Heading |
|---|---|---|---|---|---|
| 2026-05-06 23:38 | -23.62089 | -46.65660 | 2596 ft | 0 kts | 148° |
| 2026-05-06 23:56 | -23.62095 | -46.65657 | 2596 ft | 3 kts | 148° |
| 2026-05-06 23:56 | -23.62118 | -46.65672 | 2596 ft | 7 kts | 269° |
| 2026-05-06 23:57 | -23.62114 | -46.65708 | 2593 ft | 0 kts | 238° |
| 2026-05-06 23:57 | -23.62114 | -46.65709 | 2593 ft | 0 kts | 238° |
| 2026-05-06 23:57 | -23.62118 | -46.65715 | 2597 ft | 3 kts | 238° |
| 2026-05-06 23:57 | -23.62129 | -46.65766 | 2598 ft | 12 kts | 309° |
| 2026-05-06 23:58 | -23.62099 | -46.65791 | 2594 ft | 9 kts | 144° |
| 2026-05-06 23:58 | -23.62182 | -46.65728 | 2597 ft | 29 kts | 148° |
| 2026-05-06 23:58 | -23.62629 | -46.65418 | 2594 ft | 124 kts | 147° |
| 2026-05-06 23:58 | -23.63529 | -46.64800 | 3008 ft | 168 kts | 147° |
| 2026-05-06 23:59 | -23.64627 | -46.64070 | 3684 ft | 197 kts | 142° |
| 2026-05-06 23:59 | -23.65462 | -46.62850 | 4386 ft | 209 kts | 110° |
| 2026-05-06 23:59 | -23.66007 | -46.61311 | 5201 ft | 221 kts | 112° |
| 2026-05-06 23:59 | -23.66695 | -46.59835 | 5978 ft | 215 kts | 118° |
| 2026-05-07 00:00 | -23.67432 | -46.58434 | 6676 ft | 211 kts | 118° |
| 2026-05-07 00:00 | -23.68148 | -46.57044 | 7294 ft | 210 kts | 117° |
| 2026-05-07 00:00 | -23.68854 | -46.55651 | 7903 ft | 209 kts | 117° |
| 2026-05-07 00:00 | -23.69318 | -46.54730 | 8303 ft | 209 kts | 117° |
| 2026-05-07 00:01 | -23.70263 | -46.52868 | 9111 ft | 210 kts | 117° |
| 2026-05-07 00:01 | -23.70970 | -46.51473 | 9696 ft | 212 kts | 117° |
| 2026-05-07 00:01 | -23.71695 | -46.49904 | 9918 ft | 254 kts | 107° |
| 2026-05-07 00:01 | -23.71890 | -46.47856 | 10294 ft | 290 kts | 84° |
| 2026-05-07 00:02 | -23.71590 | -46.45706 | 11524 ft | 285 kts | 79° |
| 2026-05-07 00:02 | -23.71266 | -46.43551 | 12630 ft | 291 kts | 81° |
| 2026-05-07 00:02 | -23.70957 | -46.41352 | 13727 ft | 295 kts | 81° |
| 2026-05-07 00:02 | -23.70646 | -46.39122 | 14704 ft | 300 kts | 82° |
| 2026-05-07 00:03 | -23.70323 | -46.36851 | 15627 ft | 306 kts | 82° |
| 2026-05-07 00:03 | -23.69996 | -46.34568 | 16536 ft | 311 kts | 82° |
| 2026-05-07 00:03 | -23.69660 | -46.32214 | 17459 ft | 317 kts | 82° |
| 2026-05-07 00:03 | -23.69320 | -46.29820 | 18400 ft | 322 kts | 83° |
| 2026-05-07 00:04 | -23.68973 | -46.27385 | 19193 ft | 329 kts | 83° |
| 2026-05-07 00:04 | -23.68618 | -46.24898 | 19968 ft | 335 kts | 83° |
| 2026-05-07 00:04 | -23.68255 | -46.22364 | 20758 ft | 341 kts | 83° |
| 2026-05-07 00:04 | -23.67885 | -46.19785 | 21538 ft | 348 kts | 84° |
| 2026-05-07 00:05 | -23.67508 | -46.17156 | 22333 ft | 353 kts | 84° |
| 2026-05-07 00:05 | -23.67124 | -46.14485 | 23126 ft | 360 kts | 84° |
| 2026-05-07 00:05 | -23.66734 | -46.11768 | 23886 ft | 366 kts | 84° |
| 2026-05-07 00:05 | -23.66337 | -46.09001 | 24556 ft | 371 kts | 84° |
| 2026-05-07 00:06 | -23.65936 | -46.06192 | 25230 ft | 377 kts | 85° |
| 2026-05-07 00:06 | -23.65528 | -46.03348 | 25907 ft | 382 kts | 85° |
| 2026-05-07 00:06 | -23.65111 | -46.00460 | 26569 ft | 388 kts | 85° |
| 2026-05-07 00:06 | -23.64690 | -45.97532 | 27250 ft | 393 kts | 85° |
| 2026-05-07 00:07 | -23.64264 | -45.94567 | 27924 ft | 399 kts | 85° |
| 2026-05-07 00:07 | -23.64123 | -45.93594 | 28149 ft | 400 kts | 85° |
| 2026-05-07 00:07 | -23.63579 | -45.89830 | 28988 ft | 408 kts | 85° |
| 2026-05-07 00:08 | -23.63135 | -45.86759 | 29657 ft | 413 kts | 86° |
| 2026-05-07 00:08 | -23.62683 | -45.83643 | 30293 ft | 419 kts | 86° |
| 2026-05-07 00:08 | -23.62225 | -45.80489 | 30856 ft | 423 kts | 86° |
| 2026-05-07 00:08 | -23.61764 | -45.77311 | 31407 ft | 428 kts | 86° |
| 2026-05-07 00:09 | -23.61295 | -45.74089 | 31939 ft | 432 kts | 87° |
| 2026-05-07 00:09 | -23.60821 | -45.70836 | 32450 ft | 436 kts | 87° |
| 2026-05-07 00:09 | -23.60504 | -45.68664 | 32770 ft | 440 kts | 87° |
| 2026-05-07 00:09 | -23.59854 | -45.64211 | 33143 ft | 453 kts | 87° |
| 2026-05-07 00:10 | -23.59074 | -45.58848 | 33164 ft | 474 kts | 86° |
| 2026-05-07 00:10 | -23.58542 | -45.55257 | 33167 ft | 486 kts | 86° |
| 2026-05-07 00:10 | -23.57998 | -45.51588 | 33166 ft | 494 kts | 86° |
| 2026-05-07 00:11 | -23.56743 | -45.44141 | 33163 ft | 505 kts | 82° |
| 2026-05-07 00:11 | -23.55942 | -45.40450 | 33169 ft | 493 kts | 82° |
| 2026-05-07 00:11 | -23.55166 | -45.36855 | 33167 ft | 482 kts | 82° |
| 2026-05-07 00:12 | -23.53704 | -45.29834 | 33154 ft | 468 kts | 83° |
| 2026-05-07 00:12 | -23.52237 | -45.22995 | 33146 ft | 460 kts | 82° |
| 2026-05-07 00:13 | -23.51520 | -45.19612 | 32952 ft | 460 kts | 83° |
| 2026-05-07 00:13 | -23.50802 | -45.16200 | 32209 ft | 461 kts | 82° |
| 2026-05-07 00:13 | -23.50085 | -45.12850 | 31589 ft | 459 kts | 82° |
| 2026-05-07 00:13 | -23.49359 | -45.09480 | 30989 ft | 455 kts | 82° |
| 2026-05-07 00:14 | -23.48644 | -45.06135 | 30405 ft | 451 kts | 81° |
| 2026-05-07 00:14 | -23.47937 | -45.02814 | 29757 ft | 448 kts | 81° |
| 2026-05-07 00:14 | -23.47233 | -44.99524 | 29107 ft | 444 kts | 81° |
| 2026-05-07 00:14 | -23.46532 | -44.96263 | 28476 ft | 440 kts | 81° |
| 2026-05-07 00:15 | -23.45835 | -44.93036 | 27863 ft | 436 kts | 80° |
| 2026-05-07 00:15 | -23.45123 | -44.89839 | 27276 ft | 432 kts | 79° |
| 2026-05-07 00:15 | -23.44408 | -44.86666 | 26705 ft | 428 kts | 79° |
| 2026-05-07 00:15 | -23.43712 | -44.83529 | 26135 ft | 424 kts | 79° |
| 2026-05-07 00:16 | -23.43024 | -44.80406 | 25433 ft | 424 kts | 79° |
| 2026-05-07 00:16 | -23.42333 | -44.77295 | 24757 ft | 420 kts | 79° |
| 2026-05-07 00:16 | -23.41646 | -44.74235 | 24100 ft | 412 kts | 78° |
| 2026-05-07 00:16 | -23.40979 | -44.71245 | 23413 ft | 401 kts | 78° |
| 2026-05-07 00:17 | -23.40328 | -44.68322 | 22668 ft | 392 kts | 78° |
| 2026-05-07 00:17 | -23.39701 | -44.65510 | 21959 ft | 383 kts | 78° |
| 2026-05-07 00:17 | -23.39078 | -44.62725 | 21259 ft | 375 kts | 78° |
| 2026-05-07 00:17 | -23.38465 | -44.59988 | 20586 ft | 368 kts | 78° |
| 2026-05-07 00:18 | -23.37865 | -44.57305 | 19930 ft | 362 kts | 78° |
| 2026-05-07 00:18 | -23.37273 | -44.54664 | 19296 ft | 356 kts | 78° |
| 2026-05-07 00:18 | -23.36690 | -44.52062 | 18685 ft | 351 kts | 78° |
| 2026-05-07 00:18 | -23.36114 | -44.49501 | 18036 ft | 347 kts | 78° |
| 2026-05-07 00:19 | -23.35545 | -44.46967 | 17364 ft | 342 kts | 77° |
| 2026-05-07 00:19 | -23.34983 | -44.44466 | 16718 ft | 338 kts | 77° |
| 2026-05-07 00:19 | -23.34365 | -44.42009 | 16084 ft | 335 kts | 71° |
| 2026-05-07 00:19 | -23.33395 | -44.39710 | 15471 ft | 332 kts | 65° |
| 2026-05-07 00:20 | -23.32417 | -44.37449 | 14980 ft | 326 kts | 66° |
| 2026-05-07 00:20 | -23.31495 | -44.35274 | 14853 ft | 309 kts | 66° |
| 2026-05-07 00:20 | -23.30608 | -44.33204 | 14696 ft | 296 kts | 65° |
| 2026-05-07 00:20 | -23.29749 | -44.31210 | 14522 ft | 287 kts | 65° |
| 2026-05-07 00:21 | -23.28913 | -44.29269 | 14338 ft | 280 kts | 65° |
| 2026-05-07 00:21 | -23.28109 | -44.27397 | 14149 ft | 274 kts | 65° |
| 2026-05-07 00:21 | -23.27308 | -44.25534 | 13948 ft | 270 kts | 65° |
| 2026-05-07 00:21 | -23.26518 | -44.23699 | 13724 ft | 266 kts | 65° |
| 2026-05-07 00:22 | -23.25738 | -44.21888 | 13493 ft | 263 kts | 65° |
| 2026-05-07 00:22 | -23.24965 | -44.20092 | 13268 ft | 261 kts | 65° |
| 2026-05-07 00:22 | -23.24193 | -44.18301 | 13041 ft | 265 kts | 65° |
| 2026-05-07 00:22 | -23.23390 | -44.16438 | 12851 ft | 280 kts | 65° |
| 2026-05-07 00:23 | -23.22542 | -44.14472 | 12701 ft | 293 kts | 65° |
| 2026-05-07 00:23 | -23.21663 | -44.12435 | 12583 ft | 302 kts | 65° |
| 2026-05-07 00:23 | -23.20763 | -44.10349 | 12477 ft | 308 kts | 65° |
| 2026-05-07 00:23 | -23.19845 | -44.08226 | 12277 ft | 309 kts | 64° |
| 2026-05-07 00:24 | -23.18875 | -44.06153 | 12047 ft | 306 kts | 63° |
| 2026-05-07 00:24 | -23.17933 | -44.04084 | 11814 ft | 304 kts | 64° |
| 2026-05-07 00:24 | -23.16998 | -44.02019 | 11491 ft | 305 kts | 64° |
| 2026-05-07 00:24 | -23.16042 | -43.99944 | 11127 ft | 308 kts | 63° |
| 2026-05-07 00:25 | -23.15139 | -43.97832 | 10793 ft | 309 kts | 65° |
| 2026-05-07 00:25 | -23.14252 | -43.95763 | 10629 ft | 302 kts | 64° |
| 2026-05-07 00:25 | -23.13368 | -43.93729 | 10462 ft | 293 kts | 65° |
| 2026-05-07 00:25 | -23.12518 | -43.91743 | 10282 ft | 287 kts | 65° |
| 2026-05-07 00:26 | -23.11687 | -43.89793 | 10099 ft | 283 kts | 65° |
| 2026-05-07 00:26 | -23.10866 | -43.87872 | 9897 ft | 279 kts | 65° |
| 2026-05-07 00:26 | -23.10048 | -43.85964 | 9682 ft | 277 kts | 65° |
| 2026-05-07 00:26 | -23.09240 | -43.84077 | 9474 ft | 275 kts | 65° |
| 2026-05-07 00:27 | -23.08436 | -43.82200 | 9264 ft | 273 kts | 65° |
| 2026-05-07 00:27 | -23.07637 | -43.80336 | 9058 ft | 272 kts | 65° |
| 2026-05-07 00:27 | -23.06841 | -43.78480 | 8851 ft | 270 kts | 65° |
| 2026-05-07 00:27 | -23.06048 | -43.76630 | 8643 ft | 269 kts | 65° |
| 2026-05-07 00:28 | -23.05257 | -43.74787 | 8442 ft | 269 kts | 65° |
| 2026-05-07 00:28 | -23.04469 | -43.72951 | 8249 ft | 268 kts | 65° |
| 2026-05-07 00:28 | -23.03682 | -43.71119 | 8051 ft | 267 kts | 65° |
| 2026-05-07 00:28 | -23.02897 | -43.69292 | 7857 ft | 267 kts | 65° |
| 2026-05-07 00:29 | -23.02100 | -43.67469 | 7667 ft | 267 kts | 64° |
| 2026-05-07 00:29 | -23.01304 | -43.65660 | 7478 ft | 266 kts | 64° |
| 2026-05-07 00:30 | -22.98938 | -43.60258 | 6922 ft | 265 kts | 64° |
| 2026-05-07 00:30 | -22.98169 | -43.58513 | 6754 ft | 265 kts | 64° |
| 2026-05-07 00:30 | -22.97478 | -43.56941 | 6600 ft | 265 kts | 64° |
| 2026-05-07 00:30 | -22.96685 | -43.55137 | 6425 ft | 264 kts | 64° |
| 2026-05-07 00:31 | -22.95903 | -43.53360 | 6231 ft | 264 kts | 64° |
| 2026-05-07 00:31 | -22.95119 | -43.51580 | 6025 ft | 260 kts | 64° |
| 2026-05-07 00:31 | -22.94451 | -43.49772 | 5843 ft | 257 kts | 71° |
| 2026-05-07 00:31 | -22.93886 | -43.47939 | 5654 ft | 255 kts | 71° |
| 2026-05-07 00:32 | -22.93312 | -43.46122 | 5461 ft | 254 kts | 70° |
| 2026-05-07 00:32 | -22.92732 | -43.44321 | 5263 ft | 252 kts | 70° |
| 2026-05-07 00:32 | -22.92161 | -43.42532 | 5084 ft | 250 kts | 71° |
| 2026-05-07 00:32 | -22.91793 | -43.40700 | 4883 ft | 249 kts | 80° |
| 2026-05-07 00:33 | -22.91513 | -43.38850 | 4675 ft | 247 kts | 79° |
| 2026-05-07 00:33 | -22.91215 | -43.37021 | 4468 ft | 246 kts | 79° |
| 2026-05-07 00:33 | -22.90917 | -43.35199 | 4266 ft | 244 kts | 79° |
| 2026-05-07 00:33 | -22.90628 | -43.33404 | 4173 ft | 239 kts | 79° |
| 2026-05-07 00:34 | -22.90345 | -43.31643 | 4068 ft | 235 kts | 79° |
| 2026-05-07 00:34 | -22.90064 | -43.29903 | 3898 ft | 235 kts | 79° |
| 2026-05-07 00:34 | -22.89781 | -43.28142 | 3639 ft | 234 kts | 80° |
| 2026-05-07 00:34 | -22.89770 | -43.26414 | 3382 ft | 227 kts | 96° |
| 2026-05-07 00:35 | -22.89929 | -43.24737 | 3126 ft | 221 kts | 94° |
| 2026-05-07 00:35 | -22.90056 | -43.23093 | 2870 ft | 215 kts | 94° |
| 2026-05-07 00:35 | -22.90183 | -43.21491 | 2597 ft | 211 kts | 94° |
| 2026-05-07 00:35 | -22.90313 | -43.19937 | 2334 ft | 208 kts | 94° |
| 2026-05-07 00:36 | -22.90441 | -43.18403 | 2082 ft | 193 kts | 94° |
| 2026-05-07 00:36 | -22.90520 | -43.17038 | 1762 ft | 173 kts | 87° |
| 2026-05-07 00:36 | -22.90495 | -43.15839 | 1426 ft | 146 kts | 88° |
| 2026-05-07 00:36 | -22.90482 | -43.14796 | 1074 ft | 132 kts | 88° |
| 2026-05-07 00:37 | -22.90380 | -43.13801 | 808 ft | 138 kts | 69° |
| 2026-05-07 00:37 | -22.89802 | -43.12959 | 673 ft | 142 kts | 39° |
| 2026-05-07 00:37 | -22.88913 | -43.12518 | 813 ft | 141 kts | 12° |
| 2026-05-07 00:37 | -22.87933 | -43.12622 | 884 ft | 147 kts | 337° |
| 2026-05-07 00:38 | -22.87201 | -43.13405 | 929 ft | 153 kts | 296° |
| 2026-05-07 00:38 | -22.86962 | -43.14546 | 887 ft | 159 kts | 271° |
| 2026-05-07 00:38 | -22.87207 | -43.15708 | 762 ft | 163 kts | 237° |
| 2026-05-07 00:38 | -22.88065 | -43.16471 | 487 ft | 159 kts | 199° |
| 2026-05-07 00:39 | -22.89137 | -43.16467 | 237 ft | 154 kts | 167° |
| 2026-05-07 00:39 | -22.90193 | -43.16353 | 71 ft | 150 kts | 174° |
| 2026-05-07 00:39 | -22.91174 | -43.16277 | 15 ft | 112 kts | 176° |
| 2026-05-07 00:39 | -22.91566 | -43.16248 | 14 ft | 12 kts | 176° |
| 2026-05-07 00:40 | -22.91588 | -43.16314 | 13 ft | 16 kts | 313° |
| 2026-05-07 00:40 | -22.91489 | -43.16414 | 16 ft | 21 kts | 317° |
| 2026-05-07 00:40 | -22.91401 | -43.16504 | 16 ft | 16 kts | 316° |
| 2026-05-07 00:40 | -22.91345 | -43.16508 | 16 ft | 12 kts | 5° |
| 2026-05-07 00:41 | -22.91232 | -43.16511 | 16 ft | 17 kts | 356° |
| 2026-05-07 00:41 | -22.91150 | -43.16517 | 16 ft | 14 kts | 356° |
| 2026-05-07 00:41 | -22.91039 | -43.16534 | 16 ft | 18 kts | 347° |
| 2026-05-07 00:41 | -22.90900 | -43.16546 | 16 ft | 23 kts | 356° |
| 2026-05-07 00:42 | -22.90742 | -43.16543 | 16 ft | 22 kts | 357° |
| 2026-05-07 00:42 | -22.90626 | -43.16551 | 16 ft | 5 kts | 359° |
| 2026-05-07 00:42 | -22.90647 | -43.16551 | 16 ft | 7 kts | 359° |
| 2026-05-07 00:42 | -22.90643 | -43.16547 | 16 ft | 4 kts | 48° |
| 2026-05-07 00:43 | -22.90640 | -43.16492 | 17 ft | 8 kts | 103° |
| 2026-05-07 00:43 | -22.90658 | -43.16483 | 17 ft | 1 kts | 175° |
| 2026-05-07 00:43 | -22.90659 | -43.16483 | 17 ft | 0 kts | 175° |